Washington, ME (04574)

8:22 AM EDT on August 04, 2015 (GMT -0400)
Country road in Coopers Mills Maine weather station on tower at 30 feet | | Change Station
CLOSE
Current Station
Personal Weather Station
Location: Whitefield, ME
Elevation: 184 ft
Nearby Weather Stations

Elev 184 ft 44.26 °N, 69.56 °W | Updated 7 minutes ago

Partly Cloudy
Partly Cloudy
69.1 °F
Feels Like 69.1 °F
N
1.7
Wind Variable Wind from South

Today
High -- | Low -- °F
--% Chance of Precip.
Yesterday
High -- | Low -- °F
Precip. -- in
5:27 AM 7:58 PM
Waning Gibbous, 78% visible
Pressure 29.82 in
Visibility 9.0 miles
Clouds Clear
Dew Point 68 °F
Humidity 95%
Rainfall 0.02 in
Snow Depth Not available.
UV 2 out of 12
Pollen 4.20 out of 12
Air Quality Not available.
Flu Activity Not available.
METAR KAUG 041153Z AUTO 00000KT 9SM CLR 19/18 A2982 RMK AO2 SLP097 70018 T01940178 10194 20178 50004 $

More Conditions Fewer Conditions

Pressure 29.82 in
Visibility 9.0 miles
Clouds Clear
Dew Point 68 °F
Humidity 95%
Rainfall 0.02 in
Snow Depth Not available.
UV 2 out of 12
Pollen 4.20 out of 12
Air Quality Not available.
Flu Activity Not available.
METAR KAUG 041153Z AUTO 00000KT 9SM CLR 19/18 A2982 RMK AO2 SLP097 70018 T01940178 10194 20178 50004 $

More Conditions Fewer Conditions

10-Day Weather Forecast

×

Almanac

Astronomy

Aug. 04, 2015 Rise Set
Actual Time
Civil Twilight
Nautical Twilight
Astronomical Twilight
Moon
Length of Visible Light
Length of Day
Tomorrow will be .
, % of the Moon is Illuminated

Today's Extremes

State Highs State Lows

Community

WunderPhotos

Upload Photos

1,843,910 photos uploaded!

WunderBlogs® & News

Nearby

Air Quality

  Air Quality AQ Index Pollutant
Not available.

Snow Depth

Station Depth Elevation

Earthquake Activity

City Distance Mag. Time & Date
Minimum magnitude displayed is 2.5.

Coastal Water Temperatures

Place Temperature

Stations

Nearby Weather Stations

Station Location Temp. Windchill Dew Point Humidity Wind Precip. Elev Updated Type